Terminal Aerodrome Forecast
Issued by NWS

Home | Current Version | Previous Version | Graphics & Text | Print | Product List | Glossary On
Versions: 1 2 3 4 5 6 7 8 9 10 11 12 13
000
FTUS43 KGRB 251743
TAFAUW
TAF
KAUW 251743Z 2518/2618 28010G18KT P6SM VCSH SCT020 BKN040
      TEMPO 2518/2522 -SHRA BKN025
     FM252200 29010G15KT P6SM BKN045
      TEMPO 2522/2602 -SHRA OVC030
     FM260200 30008G14KT P6SM BKN045
     FM260400 31005KT P6SM BKN080
     FM261200 32008KT P6SM BKN035=

USA.gov is the U.S. government's official web portal to all federal, state and local government web resources and services.